Time;durP1;ratioP1;P1;durP2;ratioP2;P2;SDS_P1;SDS_P2;PMS_P1;PMS_P2;Temp;Humidity;BMP_temperature;BMP_pressure;BME280_temperature;BME280_humidity;BME280_pressure;Samples;Min_cycle;Max_cycle;Signal;HPM_P1;HPM_P2
2023/07/25 00:00:00;;;;;;;28.25;16.75;;;;;;;;;;6279565;22;20015;-59
2023/07/25 00:02:27;;;;;;;30.13;17.65;;;;;;;;;;6306495;22;20015;-58
2023/07/25 00:04:55;;;;;;;29.88;17.60;;;;;;;;;;6306887;22;20019;-58
2023/07/25 00:07:22;;;;;;;30.52;17.00;;;;;;;;;;6306654;22;20015;-58
2023/07/25 00:09:50;;;;;;;26.65;16.58;;;;;;;;;;6306509;22;20494;-58
2023/07/25 00:12:17;;;;;;;25.83;15.55;;;;;;;;;;6306689;22;20015;-59
2023/07/25 00:14:45;;;;;;;26.88;16.83;;;;;;;;;;6306961;22;20314;-58
2023/07/25 00:17:12;;;;;;;26.35;17.00;;;;;;;;;;6308304;22;20019;-57
2023/07/25 00:19:40;;;;;;;31.17;18.08;;;;;;;;;;6308207;22;20016;-57
2023/07/25 00:22:07;;;;;;;28.25;18.48;;;;;;;;;;6308346;22;20019;-59
2023/07/25 00:24:35;;;;;;;28.95;18.40;;;;;;;;;;6308375;22;20018;-58
2023/07/25 00:27:02;;;;;;;36.25;18.38;;;;;;;;;;6308334;22;20029;-58
2023/07/25 00:29:30;;;;;;;25.23;16.70;;;;;;;;;;6281060;22;20018;-58
2023/07/25 00:31:57;;;;;;;27.70;17.40;;;;;;;;;;6280805;22;20016;-58
2023/07/25 00:34:25;;;;;;;25.67;16.50;;;;;;;;;;6280828;22;20043;-57
2023/07/25 00:36:52;;;;;;;25.75;17.05;;;;;;;;;;6308293;22;20329;-58
2023/07/25 00:39:20;;;;;;;27.98;17.20;;;;;;;;;;6280815;22;20314;-58
2023/07/25 00:41:47;;;;;;;26.60;17.42;;;;;;;;;;6280798;22;20060;-58
2023/07/25 00:44:15;;;;;;;29.60;17.50;;;;;;;;;;6280907;22;20015;-58
2023/07/25 00:46:43;;;;;;;28.45;17.42;;;;;;;;;;6280726;22;20023;-58
2023/07/25 00:49:11;;;;;;;30.67;17.73;;;;;;;;;;6280759;22;20022;-58
2023/07/25 00:51:38;;;;;;;23.73;17.15;;;;;;;;;;6280778;22;20023;-58
2023/07/25 00:54:06;;;;;;;29.17;18.83;;;;;;;;;;6280711;22;20015;-58
2023/07/25 00:56:33;;;;;;;25.77;17.65;;;;;;;;;;6280624;22;20536;-58
2023/07/25 00:59:02;;;;;;;30.10;17.98;;;;;;;;;;6308283;22;20012;-58
2023/07/25 01:01:29;;;;;;;27.58;18.70;;;;;;;;;;6280664;22;20020;-57
2023/07/25 01:03:57;;;;;;;28.05;18.25;;;;;;;;;;6307940;22;20076;-59
2023/07/25 01:06:25;;;;;;;29.90;18.10;;;;;;;;;;6308049;22;20392;-58
2023/07/25 01:08:54;;;;;;;30.92;18.35;;;;;;;;;;6280945;22;20392;-59
2023/07/25 01:11:22;;;;;;;26.05;17.90;;;;;;;;;;6280615;22;20441;-58
2023/07/25 01:13:51;;;;;;;30.00;17.25;;;;;;;;;;6280544;22;20346;-58
2023/07/25 01:16:20;;;;;;;29.60;16.63;;;;;;;;;;6307872;22;20038;-58
2023/07/25 01:18:48;;;;;;;30.60;18.15;;;;;;;;;;6280463;22;20023;-58
2023/07/25 01:21:15;;;;;;;29.42;18.65;;;;;;;;;;6255003;22;20023;-58
2023/07/25 01:23:43;;;;;;;30.58;17.85;;;;;;;;;;6280310;22;20410;-58
2023/07/25 01:26:10;;;;;;;28.20;16.70;;;;;;;;;;6280588;22;20019;-58
2023/07/25 01:28:38;;;;;;;25.95;17.20;;;;;;;;;;6280526;22;20019;-59
2023/07/25 01:31:06;;;;;;;26.40;16.55;;;;;;;;;;6254733;22;20106;-58
2023/07/25 01:33:33;;;;;;;28.27;16.33;;;;;;;;;;6280439;22;20023;-59
2023/07/25 01:36:01;;;;;;;27.42;16.95;;;;;;;;;;6254934;22;20349;-59
2023/07/25 01:38:28;;;;;;;25.02;16.75;;;;;;;;;;6280395;22;20065;-59
2023/07/25 01:40:56;;;;;;;29.25;16.88;;;;;;;;;;6280407;22;20019;-58
2023/07/25 01:43:23;;;;;;;30.23;16.80;;;;;;;;;;6307653;22;20019;-58
2023/07/25 01:45:51;;;;;;;28.27;16.80;;;;;;;;;;6280220;22;20050;-58
2023/07/25 01:48:18;;;;;;;31.98;17.70;;;;;;;;;;6307808;22;20366;-58
2023/07/25 01:50:46;;;;;;;26.48;17.10;;;;;;;;;;6280275;22;20374;-57
2023/07/25 01:53:13;;;;;;;36.08;18.25;;;;;;;;;;6280097;22;20026;-57
2023/07/25 01:55:41;;;;;;;26.70;17.52;;;;;;;;;;6307493;22;20322;-57
2023/07/25 01:58:08;;;;;;;31.92;18.92;;;;;;;;;;6280196;22;20023;-57
2023/07/25 02:00:36;;;;;;;31.10;17.50;;;;;;;;;;6279916;22;20019;-57
2023/07/25 02:03:03;;;;;;;29.08;16.90;;;;;;;;;;6307230;22;20494;-58
2023/07/25 02:05:31;;;;;;;27.15;17.25;;;;;;;;;;6280257;22;20066;-57
2023/07/25 02:07:58;;;;;;;26.80;17.42;;;;;;;;;;6279999;22;20019;-58
2023/07/25 02:10:27;;;;;;;32.10;17.92;;;;;;;;;;6279596;22;20088;-60
2023/07/25 02:12:56;;;;;;;27.13;17.83;;;;;;;;;;6307251;22;20514;-57
2023/07/25 02:15:23;;;;;;;29.38;18.20;;;;;;;;;;6280170;22;20023;-57
2023/07/25 02:17:51;;;;;;;32.35;18.35;;;;;;;;;;6254471;22;20019;-57
2023/07/25 02:20:21;;;;;;;30.15;18.02;;;;;;;;;;6254713;22;20019;-57
2023/07/25 02:22:48;;;;;;;30.00;18.65;;;;;;;;;;6279698;22;20457;-59
2023/07/25 02:25:15;;;;;;;29.27;18.60;;;;;;;;;;6279528;22;20457;-57
2023/07/25 02:27:43;;;;;;;33.00;19.20;;;;;;;;;;6307088;22;20030;-57
2023/07/25 02:30:11;;;;;;;27.38;17.60;;;;;;;;;;6307088;22;20015;-57
2023/07/25 02:32:38;;;;;;;38.95;19.55;;;;;;;;;;6279297;22;20362;-58
2023/07/25 02:35:06;;;;;;;30.50;18.50;;;;;;;;;;6307436;22;20362;-58
2023/07/25 02:37:33;;;;;;;29.52;18.40;;;;;;;;;;6279264;22;20101;-58
2023/07/25 02:40:02;;;;;;;32.47;17.95;;;;;;;;;;6279296;22;20073;-58
2023/07/25 02:42:29;;;;;;;32.65;17.30;;;;;;;;;;6279555;22;20023;-57
2023/07/25 02:44:56;;;;;;;29.30;17.70;;;;;;;;;;6279638;22;20043;-58
2023/07/25 02:47:24;;;;;;;28.95;18.00;;;;;;;;;;6279556;22;20046;-57
2023/07/25 02:49:51;;;;;;;29.45;18.00;;;;;;;;;;6279572;22;20035;-58
2023/07/25 02:52:19;;;;;;;31.00;17.52;;;;;;;;;;6254374;22;20019;-58
2023/07/25 02:54:47;;;;;;;27.15;17.83;;;;;;;;;;6307273;22;20015;-58
2023/07/25 02:57:14;;;;;;;30.45;17.67;;;;;;;;;;6279636;22;20102;-57
2023/07/25 02:59:42;;;;;;;30.77;17.08;;;;;;;;;;6254243;22;20045;-57
2023/07/25 03:02:10;;;;;;;28.70;17.63;;;;;;;;;;6279331;22;20026;-58
2023/07/25 03:04:37;;;;;;;29.33;17.55;;;;;;;;;;6279658;22;20037;-58
2023/07/25 03:07:05;;;;;;;29.52;17.33;;;;;;;;;;6306340;22;20038;-58
2023/07/25 03:09:33;;;;;;;31.00;18.10;;;;;;;;;;6307013;22;20039;-58
2023/07/25 03:12:00;;;;;;;34.47;17.60;;;;;;;;;;6279534;22;20022;-58
2023/07/25 03:14:28;;;;;;;30.67;18.45;;;;;;;;;;6279366;22;20045;-57
2023/07/25 03:16:55;;;;;;;27.70;18.27;;;;;;;;;;6306746;22;20011;-58
2023/07/25 03:19:23;;;;;;;28.50;17.92;;;;;;;;;;6306739;22;20092;-58
2023/07/25 03:21:51;;;;;;;28.80;16.92;;;;;;;;;;6279394;22;20069;-58
2023/07/25 03:24:18;;;;;;;30.92;17.25;;;;;;;;;;6253907;22;20363;-57
2023/07/25 03:26:46;;;;;;;30.83;18.30;;;;;;;;;;6306769;22;20015;-58
2023/07/25 03:29:14;;;;;;;30.15;17.55;;;;;;;;;;6306612;22;20125;-58
2023/07/25 03:31:41;;;;;;;31.13;18.35;;;;;;;;;;6306590;22;20098;-58
2023/07/25 03:34:09;;;;;;;32.03;17.00;;;;;;;;;;6279270;22;20011;-58
2023/07/25 03:36:37;;;;;;;27.23;18.17;;;;;;;;;;6306563;22;20349;-57
2023/07/25 03:39:04;;;;;;;33.72;18.50;;;;;;;;;;6279218;22;20523;-59
2023/07/25 03:41:32;;;;;;;30.73;18.20;;;;;;;;;;6306744;22;20015;-58
2023/07/25 03:44:00;;;;;;;27.65;17.17;;;;;;;;;;6279371;22;20106;-58
2023/07/25 03:46:27;;;;;;;27.67;16.80;;;;;;;;;;6279274;22;20080;-58
2023/07/25 03:48:55;;;;;;;27.60;18.27;;;;;;;;;;6279789;22;20019;-58
2023/07/25 03:51:22;;;;;;;29.67;18.40;;;;;;;;;;6281700;22;20437;-57
2023/07/25 03:53:50;;;;;;;28.80;16.85;;;;;;;;;;6281129;22;20107;-58
2023/07/25 03:56:17;;;;;;;24.98;16.95;;;;;;;;;;6281466;22;20098;-57
2023/07/25 03:58:45;;;;;;;25.27;16.92;;;;;;;;;;6256065;22;20029;-58
2023/07/25 04:01:12;;;;;;;24.75;16.08;;;;;;;;;;6281282;22;20019;-59
2023/07/25 04:03:40;;;;;;;25.40;16.00;;;;;;;;;;6281269;22;20404;-58
2023/07/25 04:06:08;;;;;;;23.55;16.13;;;;;;;;;;6281330;22;20019;-58
2023/07/25 04:08:35;;;;;;;24.05;15.88;;;;;;;;;;6281467;22;20441;-59
2023/07/25 04:11:03;;;;;;;23.67;14.82;;;;;;;;;;6308523;22;20085;-59
2023/07/25 04:13:30;;;;;;;19.83;14.10;;;;;;;;;;6281220;22;20039;-58
2023/07/25 04:15:58;;;;;;;22.38;14.93;;;;;;;;;;6308187;22;20015;-58
2023/07/25 04:18:25;;;;;;;23.95;15.02;;;;;;;;;;6280522;22;20077;-58
2023/07/25 04:20:53;;;;;;;21.88;14.07;;;;;;;;;;6280189;22;20465;-58
2023/07/25 04:23:22;;;;;;;20.95;15.30;;;;;;;;;;6307342;22;20015;-58
2023/07/25 04:25:49;;;;;;;24.80;14.98;;;;;;;;;;6308075;22;20046;-58
2023/07/25 04:28:17;;;;;;;21.98;14.52;;;;;;;;;;6280903;22;20053;-58
2023/07/25 04:30:44;;;;;;;21.38;14.13;;;;;;;;;;6308453;22;20019;-58
2023/07/25 04:33:12;;;;;;;24.63;13.20;;;;;;;;;;6308272;22;20395;-58
2023/07/25 04:35:39;;;;;;;24.35;13.07;;;;;;;;;;6307928;22;20046;-58
2023/07/25 04:38:07;;;;;;;21.77;13.23;;;;;;;;;;6280992;22;20023;-58
2023/07/25 04:40:34;;;;;;;21.00;12.52;;;;;;;;;;6280878;22;20019;-58
2023/07/25 04:43:02;;;;;;;18.17;12.15;;;;;;;;;;6280344;22;20041;-58
2023/07/25 04:45:29;;;;;;;21.95;13.43;;;;;;;;;;6307408;22;20338;-64
2023/07/25 04:47:57;;;;;;;25.13;12.50;;;;;;;;;;6280455;22;20098;-61
2023/07/25 04:50:24;;;;;;;20.55;13.00;;;;;;;;;;6280557;22;20011;-61
2023/07/25 04:52:52;;;;;;;24.55;12.43;;;;;;;;;;6280838;22;20050;-60
2023/07/25 04:55:19;;;;;;;27.35;12.98;;;;;;;;;;6279974;22;20023;-61
2023/07/25 04:57:47;;;;;;;20.67;12.23;;;;;;;;;;6279615;22;20068;-61
2023/07/25 05:00:14;;;;;;;20.35;13.27;;;;;;;;;;6308172;22;20015;-61
2023/07/25 05:02:42;;;;;;;22.80;13.57;;;;;;;;;;6307476;22;20368;-61
2023/07/25 05:05:10;;;;;;;22.23;12.57;;;;;;;;;;6308377;22;20441;-61
2023/07/25 05:07:37;;;;;;;17.55;11.35;;;;;;;;;;6307973;22;20029;-61
2023/07/25 05:10:05;;;;;;;21.08;11.75;;;;;;;;;;6308093;22;20015;-61
2023/07/25 05:12:33;;;;;;;17.65;11.70;;;;;;;;;;6280563;22;20337;-61
2023/07/25 05:15:00;;;;;;;19.85;12.93;;;;;;;;;;6307900;22;20094;-61
2023/07/25 05:17:28;;;;;;;23.23;12.32;;;;;;;;;;6280958;22;20019;-61
2023/07/25 05:19:55;;;;;;;16.48;11.43;;;;;;;;;;6307794;22;20405;-61
2023/07/25 05:22:23;;;;;;;20.00;11.93;;;;;;;;;;6307806;22;20098;-61
2023/07/25 05:24:50;;;;;;;17.80;12.48;;;;;;;;;;6279851;22;20388;-61
2023/07/25 05:27:18;;;;;;;16.70;12.07;;;;;;;;;;6308058;22;20019;-61
2023/07/25 05:29:45;;;;;;;20.90;11.68;;;;;;;;;;6307940;22;20019;-61
2023/07/25 05:32:13;;;;;;;18.77;11.85;;;;;;;;;;6307783;22;20458;-61
2023/07/25 05:34:40;;;;;;;19.13;11.38;;;;;;;;;;6307763;22;20011;-61
2023/07/25 05:37:08;;;;;;;19.98;12.20;;;;;;;;;;6308011;22;20015;-61
2023/07/25 05:39:35;;;;;;;19.20;11.98;;;;;;;;;;6308101;22;20039;-61
2023/07/25 05:42:03;;;;;;;16.20;11.98;;;;;;;;;;6307937;22;20054;-61
2023/07/25 05:44:30;;;;;;;15.98;11.77;;;;;;;;;;6307617;22;20475;-61
2023/07/25 05:46:58;;;;;;;16.80;11.50;;;;;;;;;;6307495;22;20090;-61
2023/07/25 05:49:26;;;;;;;15.40;11.25;;;;;;;;;;6307624;22;20445;-61
2023/07/25 05:51:53;;;;;;;17.40;10.90;;;;;;;;;;6307531;22;20023;-61
2023/07/25 05:54:21;;;;;;;15.90;10.88;;;;;;;;;;6308080;22;20015;-61
2023/07/25 05:56:48;;;;;;;17.23;10.35;;;;;;;;;;6307472;22;20018;-60
2023/07/25 05:59:16;;;;;;;16.88;10.32;;;;;;;;;;6308167;22;20011;-61
2023/07/25 06:01:44;;;;;;;15.90;10.15;;;;;;;;;;6307313;22;20027;-60
2023/07/25 06:04:13;;;;;;;16.38;10.45;;;;;;;;;;6307543;22;20026;-61
2023/07/25 06:06:41;;;;;;;17.35;10.13;;;;;;;;;;6307619;22;20022;-61
2023/07/25 06:09:08;;;;;;;16.23;10.40;;;;;;;;;;6307843;22;20068;-61
2023/07/25 06:11:36;;;;;;;18.17;10.40;;;;;;;;;;6307158;22;20098;-62
2023/07/25 06:14:03;;;;;;;15.52;9.68;;;;;;;;;;6307189;22;20011;-60
2023/07/25 06:16:35;;;;;;;13.73;10.48;;;;;;;;;;6307179;22;20094;-61
2023/07/25 06:19:03;;;;;;;12.32;10.23;;;;;;;;;;6307464;22;20019;-60
2023/07/25 06:21:30;;;;;;;15.07;9.55;;;;;;;;;;6307058;22;20441;-61
2023/07/25 06:23:59;;;;;;;15.02;10.20;;;;;;;;;;6307223;22;20393;-61
2023/07/25 06:26:26;;;;;;;13.27;10.35;;;;;;;;;;6306936;22;20045;-61
2023/07/25 06:28:54;;;;;;;16.90;10.07;;;;;;;;;;6307185;22;20456;-61
2023/07/25 06:31:21;;;;;;;16.63;11.57;;;;;;;;;;6307157;22;20019;-61
2023/07/25 06:33:48;;;;;;;13.43;10.45;;;;;;;;;;6307248;22;20090;-61
2023/07/25 06:36:16;;;;;;;13.30;9.82;;;;;;;;;;6307036;22;20019;-61
2023/07/25 06:38:43;;;;;;;22.88;11.77;;;;;;;;;;6307543;22;20015;-61
2023/07/25 06:41:11;;;;;;;17.65;10.18;;;;;;;;;;6307334;22;20027;-61
2023/07/25 06:43:38;;;;;;;13.85;10.85;;;;;;;;;;6307423;22;20441;-61
2023/07/25 06:46:06;;;;;;;14.57;10.45;;;;;;;;;;6280036;22;20030;-61
2023/07/25 06:48:33;;;;;;;15.35;11.05;;;;;;;;;;6307070;22;20019;-61
2023/07/25 06:51:01;;;;;;;16.23;10.15;;;;;;;;;;6307078;22;20064;-62
2023/07/25 06:53:28;;;;;;;13.25;10.20;;;;;;;;;;6306951;22;20091;-61
2023/07/25 06:55:56;;;;;;;14.20;10.77;;;;;;;;;;6306923;22;20441;-61
2023/07/25 06:58:23;;;;;;;18.55;10.88;;;;;;;;;;6279710;22;20019;-61
2023/07/25 07:00:51;;;;;;;14.65;10.50;;;;;;;;;;6306858;22;20015;-61
2023/07/25 07:03:18;;;;;;;18.08;10.85;;;;;;;;;;6306579;22;20060;-61
2023/07/25 07:05:55;;;;;;;16.23;10.50;;;;;;;;;;6306796;22;20532;-62
2023/07/25 07:08:23;;;;;;;17.05;10.45;;;;;;;;;;6306856;22;20026;-61
2023/07/25 07:10:54;;;;;;;14.57;10.45;;;;;;;;;;6254156;22;20023;-62
2023/07/25 07:13:22;;;;;;;18.92;10.43;;;;;;;;;;6307133;22;20019;-61
2023/07/25 07:15:50;;;;;;;15.27;10.10;;;;;;;;;;6306828;22;20016;-61
2023/07/25 07:18:17;;;;;;;14.00;10.25;;;;;;;;;;6306717;22;20047;-62
2023/07/25 07:20:48;;;;;;;16.67;9.85;;;;;;;;;;6306763;22;20024;-61
2023/07/25 07:23:16;;;;;;;14.32;10.32;;;;;;;;;;6306731;22;20092;-61
2023/07/25 07:25:44;;;;;;;14.95;10.90;;;;;;;;;;6279097;22;20019;-61
2023/07/25 07:28:12;;;;;;;18.00;11.10;;;;;;;;;;6279420;22;20019;-61
2023/07/25 07:30:40;;;;;;;15.63;10.10;;;;;;;;;;6279565;22;20340;-61
2023/07/25 07:33:08;;;;;;;17.27;10.48;;;;;;;;;;6306947;22;20015;-62
2023/07/25 07:35:35;;;;;;;13.10;10.13;;;;;;;;;;6306902;22;20019;-62
2023/07/25 07:38:03;;;;;;;15.98;11.50;;;;;;;;;;6306805;22;20015;-62
2023/07/25 07:40:30;;;;;;;17.50;11.07;;;;;;;;;;6306732;22;20080;-61
2023/07/25 07:42:58;;;;;;;13.65;10.25;;;;;;;;;;6306906;22;20349;-61
2023/07/25 07:45:27;;;;;;;13.07;10.48;;;;;;;;;;6306650;22;20015;-62
2023/07/25 07:47:54;;;;;;;11.50;9.80;;;;;;;;;;6306631;22;20019;-62
2023/07/25 07:50:22;;;;;;;16.73;10.35;;;;;;;;;;6306600;22;20011;-62
2023/07/25 07:52:49;;;;;;;16.52;9.98;;;;;;;;;;6306619;22;20019;-62
2023/07/25 07:55:17;;;;;;;14.25;10.10;;;;;;;;;;6306378;22;20020;-61
2023/07/25 07:57:45;;;;;;;13.20;10.32;;;;;;;;;;6306358;22;20076;-62
2023/07/25 08:00:14;;;;;;;16.45;10.23;;;;;;;;;;6306517;22;20018;-62
2023/07/25 08:02:42;;;;;;;15.65;10.05;;;;;;;;;;6306232;22;20326;-62
2023/07/25 08:05:09;;;;;;;15.13;10.30;;;;;;;;;;6306536;22;20012;-62
2023/07/25 08:07:37;;;;;;;12.52;10.70;;;;;;;;;;6306561;22;20023;-62
2023/07/25 08:10:05;;;;;;;12.30;10.10;;;;;;;;;;6306566;22;20012;-62
2023/07/25 08:12:33;;;;;;;15.45;10.98;;;;;;;;;;6306628;22;20015;-62
2023/07/25 08:15:00;;;;;;;11.68;9.70;;;;;;;;;;6279073;22;20110;-62
2023/07/25 08:17:28;;;;;;;13.45;9.77;;;;;;;;;;6306779;22;20038;-62
2023/07/25 08:19:56;;;;;;;12.70;9.80;;;;;;;;;;6306385;22;20019;-62
2023/07/25 08:22:23;;;;;;;14.27;9.73;;;;;;;;;;6306649;22;20098;-62
2023/07/25 08:24:53;;;;;;;14.18;10.25;;;;;;;;;;6306492;22;20046;-62
2023/07/25 08:27:21;;;;;;;15.15;13.43;;;;;;;;;;6306509;22;20430;-62
2023/07/25 08:29:49;;;;;;;15.23;9.98;;;;;;;;;;6306368;22;20015;-62
2023/07/25 08:32:16;;;;;;;13.13;9.88;;;;;;;;;;6306517;22;20057;-62
2023/07/25 08:34:44;;;;;;;12.43;9.88;;;;;;;;;;6306199;22;20341;-63
2023/07/25 08:37:12;;;;;;;15.70;12.18;;;;;;;;;;6307378;22;20026;-62
2023/07/25 08:39:40;;;;;;;12.45;10.02;;;;;;;;;;6308598;22;20016;-62
2023/07/25 08:42:07;;;;;;;13.65;10.35;;;;;;;;;;6308150;22;20011;-61
2023/07/25 08:44:35;;;;;;;11.98;9.70;;;;;;;;;;6308213;22;20022;-61
2023/07/25 08:47:06;;;;;;;12.40;9.25;;;;;;;;;;6308155;22;20090;-61
2023/07/25 08:49:35;;;;;;;11.93;9.52;;;;;;;;;;6308293;22;20056;-61
2023/07/25 08:52:03;;;;;;;16.50;9.43;;;;;;;;;;6308028;22;20015;-61
2023/07/25 08:54:36;;;;;;;13.18;9.23;;;;;;;;;;6308190;22;20430;-62
2023/07/25 08:57:04;;;;;;;12.80;9.53;;;;;;;;;;6308456;22;20019;-62
2023/07/25 08:59:32;;;;;;;14.27;9.07;;;;;;;;;;6307983;22;20314;-61
2023/07/25 09:02:00;;;;;;;12.57;9.20;;;;;;;;;;6308006;22;20018;-62
2023/07/25 09:04:28;;;;;;;10.68;8.93;;;;;;;;;;6308001;22;20078;-62
2023/07/25 09:06:55;;;;;;;16.45;9.35;;;;;;;;;;6308212;22;20019;-60
2023/07/25 09:09:23;;;;;;;16.83;9.63;;;;;;;;;;6308443;22;20019;-61
2023/07/25 09:11:51;;;;;;;13.20;9.52;;;;;;;;;;6307980;22;20015;-61
2023/07/25 09:14:19;;;;;;;14.30;9.25;;;;;;;;;;6280871;22;20512;-61
2023/07/25 09:16:46;;;;;;;13.15;9.10;;;;;;;;;;6308063;22;20025;-60
2023/07/25 09:19:14;;;;;;;16.20;9.20;;;;;;;;;;6307908;22;20016;-61
2023/07/25 09:21:53;;;;;;;12.75;8.80;;;;;;;;;;6307848;22;20022;-60
2023/07/25 09:24:21;;;;;;;14.25;9.50;;;;;;;;;;6307848;22;20394;-61
2023/07/25 09:26:51;;;;;;;15.35;10.23;;;;;;;;;;6308132;22;20370;-60
2023/07/25 09:29:24;;;;;;;13.75;9.27;;;;;;;;;;6307729;22;20081;-61
2023/07/25 09:31:51;;;;;;;14.85;10.00;;;;;;;;;;6308061;22;20325;-60
2023/07/25 09:34:23;;;;;;;15.75;11.48;;;;;;;;;;6307771;22;20055;-61
2023/07/25 09:36:51;;;;;;;14.48;10.10;;;;;;;;;;6307697;22;20018;-61
2023/07/25 09:39:18;;;;;;;17.27;11.35;;;;;;;;;;6307758;22;20019;-60
2023/07/25 09:41:46;;;;;;;14.40;10.18;;;;;;;;;;6307632;22;20448;-62
2023/07/25 09:44:13;;;;;;;14.85;9.82;;;;;;;;;;6307706;22;20012;-61
2023/07/25 09:46:51;;;;;;;11.30;9.25;;;;;;;;;;6307720;22;20457;-61
2023/07/25 09:49:22;;;;;;;15.32;9.00;;;;;;;;;;6307593;22;20507;-61
2023/07/25 09:51:59;;;;;;;13.70;9.38;;;;;;;;;;6307633;22;20015;-61
2023/07/25 09:54:27;;;;;;;14.27;8.77;;;;;;;;;;6307554;22;20037;-61
2023/07/25 09:56:54;;;;;;;14.18;7.50;;;;;;;;;;6307750;22;20372;-61
2023/07/25 09:59:22;;;;;;;20.80;8.05;;;;;;;;;;6307558;22;20041;-61
2023/07/25 10:01:53;;;;;;;15.80;7.15;;;;;;;;;;6307403;22;20065;-62
2023/07/25 10:04:21;;;;;;;13.45;7.90;;;;;;;;;;6280442;22;20015;-61
2023/07/25 10:06:49;;;;;;;14.25;8.60;;;;;;;;;;6307336;22;20019;-61
2023/07/25 10:09:17;;;;;;;16.42;8.57;;;;;;;;;;6307331;22;20016;-62
2023/07/25 10:11:44;;;;;;;13.50;7.70;;;;;;;;;;6280043;22;20023;-62
2023/07/25 10:14:12;;;;;;;12.18;7.15;;;;;;;;;;6280226;22;20396;-62
2023/07/25 10:16:40;;;;;;;11.38;7.65;;;;;;;;;;6307570;22;20019;-62
2023/07/25 10:19:08;;;;;;;10.70;7.30;;;;;;;;;;6307112;22;20015;-62
2023/07/25 10:21:49;;;;;;;11.20;7.38;;;;;;;;;;6307332;22;20019;-62
2023/07/25 10:24:17;;;;;;;17.42;8.15;;;;;;;;;;6307221;22;20020;-62
2023/07/25 10:26:57;;;;;;;12.93;7.95;;;;;;;;;;6307266;22;20038;-61
2023/07/25 10:29:37;;;;;;;16.67;7.10;;;;;;;;;;6307134;22;20019;-62
2023/07/25 10:32:05;;;;;;;15.23;7.50;;;;;;;;;;6307150;22;20015;-62
2023/07/25 10:34:47;;;;;;;14.10;7.43;;;;;;;;;;6307175;22;20023;-61
2023/07/25 10:37:21;;;;;;;17.55;10.35;;;;;;;;;;6306751;22;20015;-62
2023/07/25 10:40:09;;;;;;;15.68;8.18;;;;;;;;;;6305183;22;20077;-62
2023/07/25 10:42:43;;;;;;;14.82;9.65;;;;;;;;;;6279585;22;20493;-62
2023/07/25 10:45:33;;;;;;;22.95;15.65;;;;;;;;;;6305637;22;20031;-62
2023/07/25 10:48:01;;;;;;;18.77;10.27;;;;;;;;;;6305417;22;20023;-63
2023/07/25 10:50:53;;;;;;;17.35;10.25;;;;;;;;;;6306620;22;20077;-62
2023/07/25 10:53:21;;;;;;;17.77;9.30;;;;;;;;;;6305637;22;20034;-62
2023/07/25 10:56:04;;;;;;;22.25;7.63;;;;;;;;;;6306093;22;20394;-67
2023/07/25 10:58:38;;;;;;;14.73;8.00;;;;;;;;;;6280241;22;20074;-61
2023/07/25 11:01:06;;;;;;;16.65;7.57;;;;;;;;;;6300411;22;20134;-62
2023/07/25 11:03:34;;;;;;;13.63;8.25;;;;;;;;;;6300060;22;20400;-62
2023/07/25 11:06:08;;;;;;;13.63;7.53;;;;;;;;;;6300280;22;20022;-62
2023/07/25 11:08:40;;;;;;;14.02;6.93;;;;;;;;;;6273635;22;20106;-61
2023/07/25 11:11:09;;;;;;;17.65;8.00;;;;;;;;;;6272592;22;20019;-61
2023/07/25 11:13:37;;;;;;;10.98;8.02;;;;;;;;;;6300285;22;20047;-61
2023/07/25 11:16:05;;;;;;;13.40;7.50;;;;;;;;;;6300844;22;20011;-62
2023/07/25 11:18:37;;;;;;;13.50;8.00;;;;;;;;;;6272885;22;20023;-62
2023/07/25 11:21:07;;;;;;;9.48;7.07;;;;;;;;;;6301772;22;20019;-61
2023/07/25 11:23:35;;;;;;;15.60;8.15;;;;;;;;;;6302599;22;20026;-60
2023/07/25 11:26:03;;;;;;;15.25;7.30;;;;;;;;;;6304691;22;20011;-61
2023/07/25 11:28:31;;;;;;;13.73;7.43;;;;;;;;;;6276775;22;20020;-62
2023/07/25 11:30:59;;;;;;;14.38;7.57;;;;;;;;;;6305969;22;20086;-61
2023/07/25 11:33:26;;;;;;;10.25;7.38;;;;;;;;;;6304926;22;20030;-61
2023/07/25 11:35:54;;;;;;;14.23;7.07;;;;;;;;;;6306262;22;20015;-61
2023/07/25 11:38:22;;;;;;;17.52;7.55;;;;;;;;;;6306326;22;20019;-61
2023/07/25 11:40:51;;;;;;;13.60;7.00;;;;;;;;;;6306655;22;20016;-61
2023/07/25 11:43:18;;;;;;;14.48;7.10;;;;;;;;;;6279322;22;20023;-61
2023/07/25 11:45:46;;;;;;;15.65;7.65;;;;;;;;;;6306656;22;20433;-62
2023/07/25 11:48:19;;;;;;;12.70;6.55;;;;;;;;;;6279686;22;20068;-61
2023/07/25 11:50:48;;;;;;;13.85;7.25;;;;;;;;;;6306995;22;20497;-61
2023/07/25 11:53:17;;;;;;;12.60;7.00;;;;;;;;;;6306786;22;20047;-62
2023/07/25 11:55:45;;;;;;;15.93;7.13;;;;;;;;;;6306839;22;20011;-62
2023/07/25 11:58:17;;;;;;;12.85;7.53;;;;;;;;;;6306970;22;20429;-61
2023/07/25 12:00:51;;;;;;;16.13;7.53;;;;;;;;;;6306535;22;20071;-61
2023/07/25 12:03:19;;;;;;;13.40;8.60;;;;;;;;;;6304649;22;20503;-62
2023/07/25 12:05:53;;;;;;;13.48;7.75;;;;;;;;;;6305637;22;20015;-61
2023/07/25 12:08:34;;;;;;;13.80;8.00;;;;;;;;;;6306186;22;20072;-61
2023/07/25 12:11:03;;;;;;;11.98;7.13;;;;;;;;;;6305802;22;20015;-61
2023/07/25 12:13:31;;;;;;;12.68;6.50;;;;;;;;;;6307564;22;20019;-62
2023/07/25 12:16:00;;;;;;;14.40;6.90;;;;;;;;;;6307941;22;20026;-63
2023/07/25 12:18:27;;;;;;;14.65;7.35;;;;;;;;;;6306006;22;20020;-61
2023/07/25 12:20:56;;;;;;;13.25;7.35;;;;;;;;;;6306358;22;20011;-61
2023/07/25 12:23:39;;;;;;;11.68;7.10;;;;;;;;;;6306360;22;20039;-60
2023/07/25 12:26:10;;;;;;;13.43;8.65;;;;;;;;;;6306462;22;20043;-62
2023/07/25 12:28:42;;;;;;;17.27;10.90;;;;;;;;;;6305952;22;20288;-61
2023/07/25 12:31:09;;;;;;;12.73;8.35;;;;;;;;;;6307204;22;20015;-62
2023/07/25 12:33:37;;;;;;;19.35;14.10;;;;;;;;;;6307812;22;20015;-61
2023/07/25 12:36:05;;;;;;;16.55;9.13;;;;;;;;;;6306806;22;20315;-61
2023/07/25 12:38:32;;;;;;;14.20;7.40;;;;;;;;;;6307401;22;20086;-61
2023/07/25 12:41:00;;;;;;;10.55;7.00;;;;;;;;;;6306616;22;20023;-61
2023/07/25 12:43:27;;;;;;;14.32;7.38;;;;;;;;;;6306385;22;20024;-61
2023/07/25 12:59:23;;;;;;;13.93;7.60;;;;;;;;;;5094137;27;20953;-61
2023/07/25 13:01:51;;;;;;;12.85;7.38;;;;;;;;;;5096714;28;20488;-61
2023/07/25 13:04:18;;;;;;;13.85;7.22;;;;;;;;;;5093049;28;20067;-62
2023/07/25 13:06:46;;;;;;;14.95;7.80;;;;;;;;;;5095224;28;20052;-62
2023/07/25 13:09:14;;;;;;;14.18;7.47;;;;;;;;;;5092935;28;20124;-62
2023/07/25 13:11:41;;;;;;;15.57;7.68;;;;;;;;;;5089092;28;20064;-62
2023/07/25 13:14:09;;;;;;;13.05;7.10;;;;;;;;;;5095575;28;20037;-61
2023/07/25 13:16:36;;;;;;;15.55;7.82;;;;;;;;;;5092242;28;20047;-61
2023/07/25 13:19:04;;;;;;;14.25;6.75;;;;;;;;;;5092626;28;20040;-61
2023/07/25 13:21:31;;;;;;;19.30;7.80;;;;;;;;;;5093873;28;20044;-61
2023/07/25 13:23:59;;;;;;;12.32;7.07;;;;;;;;;;5102257;28;20039;-61
2023/07/25 13:26:28;;;;;;;15.45;7.28;;;;;;;;;;5109224;28;20481;-62
2023/07/25 13:28:55;;;;;;;18.00;8.30;;;;;;;;;;5101349;28;20096;-61
2023/07/25 13:31:23;;;;;;;18.63;6.80;;;;;;;;;;5086240;28;20149;-61
2023/07/25 13:33:50;;;;;;;13.95;7.20;;;;;;;;;;5093960;28;20034;-61
2023/07/25 13:36:18;;;;;;;18.35;6.93;;;;;;;;;;5089916;28;20097;-61
2023/07/25 13:38:45;;;;;;;17.60;7.55;;;;;;;;;;5097053;28;20140;-62
2023/07/25 13:41:13;;;;;;;16.10;8.13;;;;;;;;;;5095269;28;20489;-61
2023/07/25 13:43:41;;;;;;;18.65;7.82;;;;;;;;;;5097270;28;20047;-62
2023/07/25 13:46:08;;;;;;;13.88;6.65;;;;;;;;;;5092680;28;20035;-62
2023/07/25 13:48:36;;;;;;;16.55;8.32;;;;;;;;;;5096814;28;20093;-62
2023/07/25 13:51:03;;;;;;;16.67;8.85;;;;;;;;;;5094471;28;20565;-62
2023/07/25 13:53:31;;;;;;;15.73;7.28;;;;;;;;;;5095490;28;20036;-62
2023/07/25 13:55:58;;;;;;;13.65;7.10;;;;;;;;;;5092333;28;20118;-62
2023/07/25 13:58:26;;;;;;;17.40;7.53;;;;;;;;;;5084587;28;20048;-62
2023/07/25 14:00:55;;;;;;;15.65;7.38;;;;;;;;;;5075284;28;20087;-62
2023/07/25 14:03:22;;;;;;;14.60;6.93;;;;;;;;;;5075139;28;20074;-62
2023/07/25 14:05:49;;;;;;;15.90;7.20;;;;;;;;;;5074002;28;20041;-62
2023/07/25 14:08:17;;;;;;;19.58;7.25;;;;;;;;;;5075167;28;20044;-62
2023/07/25 14:10:45;;;;;;;11.68;6.60;;;;;;;;;;5075500;28;20045;-62
2023/07/25 14:13:12;;;;;;;16.02;6.97;;;;;;;;;;5074982;28;20402;-62
2023/07/25 14:15:40;;;;;;;14.95;6.78;;;;;;;;;;5075378;28;20040;-62
2023/07/25 14:18:08;;;;;;;13.90;7.13;;;;;;;;;;5075206;28;20056;-62
2023/07/25 14:20:37;;;;;;;16.63;7.40;;;;;;;;;;5075079;28;20044;-62
2023/07/25 14:23:05;;;;;;;15.88;6.82;;;;;;;;;;5074064;28;20111;-62
2023/07/25 14:25:32;;;;;;;22.17;7.72;;;;;;;;;;5074960;28;20061;-61
2023/07/25 14:28:00;;;;;;;18.23;6.70;;;;;;;;;;5071815;28;20032;-62
2023/07/25 14:30:27;;;;;;;20.08;7.07;;;;;;;;;;5077290;28;20048;-62
2023/07/25 14:32:55;;;;;;;13.70;6.88;;;;;;;;;;5077485;28;20039;-62
2023/07/25 14:35:22;;;;;;;16.38;8.13;;;;;;;;;;5074821;28;20041;-62
2023/07/25 14:37:50;;;;;;;15.98;7.10;;;;;;;;;;5073207;28;20051;-62
2023/07/25 14:40:24;;;;;;;20.13;8.25;;;;;;;;;;5078116;28;20094;-62